ICT,Max TemperatureF,Mean TemperatureF,Min TemperatureF,Max Dew PointF,MeanDew PointF,Min DewpointF,Max Humidity, Mean Humidity, Min Humidity, Max Sea Level PressureIn, Mean Sea Level PressureIn, Min Sea Level PressureIn, Max VisibilityMiles, Mean VisibilityMiles, Min VisibilityMiles, Max Wind SpeedMPH, Mean Wind SpeedMPH, Max Gust SpeedMPH,PrecipitationIn, CloudCover, Events, WindDirDegrees
2013-3-1,100,84,68,64,63,61,88,58,27,29.86,29.77,29.68,6,3,1,5,0,,0.00,2,,300
2013-3-2,98,86,73,70,69,68,83,62,39,29.92,29.82,29.74,6,3,1,4,0,,0.00,3,,110
2013-3-3,98,86,73,72,71,70,88,66,42,29.92,29.86,29.80,4,3,1,7,2,,0.00,4,,132
2013-3-4,80,76,73,70,68,63,88,74,54,30.04,29.98,29.92,6,4,1,8,2,,0.00,6,,62
2013-3-5,87,79,71,70,68,64,94,71,48,30.09,29.98,29.89,6,4,1,5,1,,0.00,6,,100
2013-3-6,89,78,66,68,65,63,94,66,40,30.06,29.98,29.89,6,5,2,6,2,,0.00,3,,268
2013-3-7,98,84,69,68,66,64,88,61,32,30.04,29.94,29.83,6,5,3,8,2,,0.00,5,,348
2013-3-8,93,80,68,66,65,63,88,61,36,29.98,29.85,29.74,6,4,2,4,1,,0.00,3,,155
2013-3-9,93,82,71,70,63,55,94,61,29,29.98,29.84,29.74,6,4,2,4,1,,0.00,5,,209
2013-3-10,93,76,60,61,56,50,94,56,23,29.95,29.84,29.77,5,3,2,6,1,,0.00,1,,181
2013-3-11,93,78,62,59,59,57,88,63,30,29.92,29.84,29.71,6,3,2,4,1,,0.00,2,,160
2013-3-12,96,78,59,61,51,43,94,45,16,29.95,29.83,29.74,5,2,1,4,1,,0.00,3,,155
2013-3-13,96,78,60,66,56,52,88,54,23,29.98,29.84,29.74,3,2,1,4,1,,0.00,5,,290
2013-3-14,95,78,60,61,57,50,94,64,22,30.01,29.93,29.83,4,2,1,7,2,,0.00,3,,252
2013-3-15,100,81,62,63,60,57,94,55,24,30.01,29.87,29.77,4,2,1,4,2,,0.00,5,,120
2013-3-16,100,86,71,68,64,59,88,53,25,29.98,29.88,29.77,4,2,1,4,0,,0.00,3,,230
2013-3-17,100,84,69,68,63,57,94,57,24,29.92,29.77,29.65,5,2,1,4,1,,0.00,3,,65
2013-3-18,104,86,68,64,56,46,83,44,16,29.80,29.69,29.59,6,3,1,6,1,,0.00,2,,187
2013-3-19,102,85,68,63,55,48,73,43,18,29.80,29.69,29.62,6,5,2,6,2,,0.00,2,,205
2013-3-20,96,80,64,57,51,43,77,44,16,29.89,29.77,29.68,4,3,1,4,0,,0.00,3,,230
2013-3-21,98,79,60,59,53,45,88,45,16,29.86,29.74,29.65,2,2,1,5,1,,0.00,5,,145
2013-3-22,96,79,62,59,56,50,88,56,20,29.83,29.73,29.62,3,2,1,4,1,,0.00,4,,175
2013-3-23,104,84,64,59,52,45,83,42,14,29.86,29.74,29.62,6,4,2,5,1,,0.00,2,,298
2013-3-24,98,80,62,61,53,46,78,45,17,29.89,29.74,29.62,2,2,1,4,0,,0.00,2,,270
2013-3-25,98,81,64,64,60,55,88,58,24,29.80,29.68,29.53,2,1,1,2,0,,0.00,2,,200
2013-3-26,98,84,69,63,59,54,78,50,22,29.77,29.68,29.59,2,1,1,5,1,,0.00,2,,235
2013-3-27,100,86,71,64,62,57,73,43,24,29.83,29.73,29.65,3,2,1,0,0,,0.00,2,,-1
2013-3-28,102,86,69,68,64,57,88,56,22,29.80,29.72,29.65,4,2,1,8,1,,0.00,2,,155
2013-3-29,102,86,71,70,65,59,88,57,24,29.83,29.73,29.62,4,3,1,5,2,,0.00,4,,240
2013-3-30,100,86,73,72,69,64,88,59,31,29.80,29.70,29.62,4,2,1,9,3,,0.00,4,,80
2013-3-31,100,88,75,75,70,64,100,65,31,29.86,29.75,29.65,5,2,1,16,3,,0.00,2,,174